Accueil
METAR-TAF:

METAR-TAF

Aéroports :

Hagåtña, Guam, États-Unis

Aéroport international Antonio-B.-Won-Pat de Guam

latitude: 13-29N, longitude: 144-48E, altitude: 91 m

Observation

Le bulletin a été fait il y a 16 minutes, à 07:54 UTC
Vent 13 kt de est/nord-est
Température 30°C
Humidité 70%
Pression 1012 hPa
Visibilité: 16.1 km
Quelques nuages à une hauteur de 2500 ft
Nuages épars à une hauteur de 3300 ft

METAR: PGUM 270754Z 07013KT 10SM FEW025 SCT033 30/24 A2987 RMK AO2 SLP106 T03000244 $

Heure: 18:10 (08:10 UTC)

Prévision

Le bulletin a été fait il y a 2 heures et 50 minutes, à 05:20 UTC
Prévision valable du 27 à 06 UTC au 28 à 12 UTC
Vent 15 kt de est
Visibilité: 10 km
Nuages épars à une hauteur de 3000 ft
averses à proximité
A partir de 27 à 0800 UTC
Vent 9 kt de est
Visibilité: 10 km
Nuages épars à une hauteur de 2100 ft
averses à proximité

TAF: PGUM 270520Z 2706/2812 10015KT P6SM VCSH SCT030 FM270800 09009KT P6SM VCSH SCT021

Observations et prévisions météorologiques de plus de 4000 aéroports (messages METAR et TAF).

Les stations disponibles sont représentées par des disques jaunes et rouges sur la carte.

Passer la souris dessus pour voir le nom de la station.

Cliquer dessus pour voir les observations et prévisions météorologiques.

Pour changer de carte: cliquez sur les boutons verts avec une croix noire pour zoomer, sur le bouton vert avec un tiret pour effectuer un zoom arrière, ou sur les flèches vertes pour les cartes adjacentes.


METAR-TAF: